createdAt,value
2022-10-02T00:01:49.189Z,4.00
2022-10-02T00:06:57.850Z,4.03
2022-10-02T00:12:05.510Z,4.97
2022-10-02T00:17:16.564Z,5.10
2022-10-02T00:22:32.108Z,6.30
2022-10-02T00:27:47.206Z,6.93
2022-10-02T00:33:05.057Z,6.32
2022-10-02T00:38:19.106Z,5.38
2022-10-02T00:43:30.533Z,7.93
2022-10-02T00:49:06.043Z,8.43
2022-10-02T00:54:19.385Z,7.30
2022-10-02T00:59:39.972Z,7.93
2022-10-02T01:04:43.253Z,6.80
2022-10-02T01:09:47.089Z,9.00
2022-10-02T01:14:51.325Z,7.95
2022-10-02T01:19:54.387Z,9.35
2022-10-02T01:25:00.187Z,10.18
2022-10-02T01:30:07.455Z,9.52
2022-10-02T01:35:10.949Z,8.68
2022-10-02T01:40:26.239Z,8.70
2022-10-02T01:45:44.920Z,8.73
2022-10-02T01:50:57.792Z,9.27
2022-10-02T02:01:17.614Z,9.57
2022-10-02T02:06:27.868Z,8.73
2022-10-02T02:11:32.743Z,9.95
2022-10-02T02:16:42.417Z,9.23
2022-10-02T02:21:48.792Z,10.02
2022-10-02T02:26:56.645Z,10.82
2022-10-02T02:32:01.673Z,13.68
2022-10-02T02:37:09.473Z,13.35
2022-10-02T02:42:18.150Z,14.98
2022-10-02T02:47:25.455Z,17.10
2022-10-02T02:52:33.273Z,16.40
2022-10-02T02:57:44.808Z,15.23
2022-10-02T03:02:50.470Z,15.20
2022-10-02T03:07:56.174Z,12.90
2022-10-02T03:13:11.709Z,10.43
2022-10-02T03:18:26.221Z,8.63
2022-10-02T03:23:35.996Z,10.43
2022-10-02T03:28:55.393Z,10.95
2022-10-02T03:34:01.719Z,10.40
2022-10-02T03:44:31.717Z,9.48
2022-10-02T03:49:34.799Z,12.95
2022-10-02T03:54:38.261Z,14.45
2022-10-02T03:59:48.074Z,15.30
2022-10-02T04:04:56.228Z,15.65
2022-10-02T04:10:15.273Z,10.80
2022-10-02T04:15:24.376Z,13.40
2022-10-02T04:20:33.497Z,14.68
2022-10-02T04:25:43.806Z,13.20
2022-10-02T04:30:47.945Z,12.55
2022-10-02T04:36:03.019Z,13.88
2022-10-02T04:41:20.962Z,13.38
2022-10-02T04:46:45.983Z,12.90
2022-10-02T04:52:05.939Z,12.25
2022-10-02T04:57:25.552Z,12.88
2022-10-02T05:02:42.643Z,12.77
2022-10-02T05:08:09.890Z,10.75
2022-10-02T05:13:30.016Z,10.43
2022-10-02T05:18:53.042Z,11.55
2022-10-02T05:24:10.309Z,10.18
2022-10-02T05:29:31.861Z,10.20
2022-10-02T05:34:48.314Z,11.93
2022-10-02T05:40:00.194Z,11.68
2022-10-02T05:45:06.336Z,15.30
2022-10-02T05:50:17.930Z,13.52
2022-10-02T05:55:26.857Z,14.20
2022-10-02T06:00:37.265Z,15.32
2022-10-02T06:05:50.231Z,16.35
2022-10-02T06:10:57.866Z,15.90
2022-10-02T06:16:09.956Z,18.55
2022-10-02T06:21:25.122Z,17.03
2022-10-02T06:26:39.210Z,17.40
2022-10-02T06:31:47.128Z,15.38
2022-10-02T06:37:19.323Z,12.13
2022-10-02T06:42:33.622Z,13.80
2022-10-02T06:47:50.298Z,13.93
2022-10-02T06:53:03.727Z,14.70
2022-10-02T06:58:24.072Z,12.68
2022-10-02T07:04:13.921Z,15.43
2022-10-02T07:09:34.162Z,13.77
2022-10-02T07:14:56.003Z,14.80
2022-10-02T07:20:15.607Z,13.20
2022-10-02T07:25:40.845Z,13.63
2022-10-02T07:30:57.397Z,13.75
2022-10-02T07:36:07.541Z,13.75
2022-10-02T07:41:37.191Z,13.75
2022-10-02T07:46:49.772Z,12.10
2022-10-02T07:52:00.134Z,11.07
2022-10-02T07:57:18.680Z,11.68
2022-10-02T08:02:29.758Z,8.95
2022-10-02T08:07:33.110Z,10.18
2022-10-02T08:12:42.073Z,7.97
2022-10-02T08:17:49.929Z,10.18
2022-10-02T08:22:56.962Z,8.95
2022-10-02T08:28:04.619Z,7.97
2022-10-02T08:33:15.143Z,7.75
2022-10-02T08:38:35.570Z,7.50
2022-10-02T08:44:26.255Z,7.10
2022-10-02T08:50:07.631Z,7.22
2022-10-02T08:55:32.451Z,6.05
2022-10-02T09:00:46.704Z,6.72
2022-10-02T09:06:14.757Z,5.90
2022-10-02T09:12:02.790Z,5.70
2022-10-02T09:17:36.211Z,7.60
2022-10-02T09:23:13.137Z,5.15
2022-10-02T09:28:52.232Z,5.35
2022-10-02T09:34:19.316Z,5.75
2022-10-02T09:39:58.139Z,4.70
2022-10-02T09:45:51.417Z,4.93
2022-10-02T09:51:36.846Z,6.03
2022-10-02T09:57:01.957Z,4.18
2022-10-02T10:02:35.322Z,4.55
2022-10-02T10:08:19.191Z,5.82
2022-10-02T10:14:00.189Z,6.10
2022-10-02T10:19:45.340Z,5.35
2022-10-02T10:25:19.808Z,6.32
2022-10-02T10:30:45.073Z,6.43
2022-10-02T10:36:05.788Z,7.55
2022-10-02T10:41:43.895Z,6.68
2022-10-02T10:47:18.267Z,6.50
2022-10-02T10:52:36.959Z,8.15
2022-10-02T10:57:53.218Z,5.53
2022-10-02T11:03:27.773Z,4.20
2022-10-02T11:09:08.583Z,2.75
2022-10-02T11:14:27.494Z,2.38
2022-10-02T11:19:51.117Z,3.10
2022-10-02T11:25:12.858Z,2.40
2022-10-02T11:30:25.354Z,1.80
2022-10-02T11:35:38.357Z,1.98
2022-10-02T11:40:58.352Z,2.53
2022-10-02T11:46:23.725Z,2.03
2022-10-02T11:51:50.830Z,1.88
2022-10-02T11:57:19.487Z,1.77
2022-10-02T12:02:35.199Z,1.90
2022-10-02T12:07:48.033Z,1.75
2022-10-02T12:13:03.683Z,1.50
2022-10-02T12:18:22.947Z,1.50
2022-10-02T12:23:54.592Z,1.50
2022-10-02T12:29:02.351Z,1.40
2022-10-02T12:34:28.831Z,1.65
2022-10-02T12:39:45.436Z,1.73
2022-10-02T12:45:19.408Z,1.40
2022-10-02T12:50:40.557Z,1.90
2022-10-02T12:56:07.560Z,1.25
2022-10-02T13:01:39.024Z,1.30
2022-10-02T13:07:20.751Z,1.50
2022-10-02T13:12:38.926Z,1.38
2022-10-02T13:17:51.617Z,1.50
2022-10-02T13:23:08.957Z,0.98
2022-10-02T13:28:46.331Z,1.52
2022-10-02T13:34:07.597Z,2.05
2022-10-02T13:39:30.350Z,1.85
2022-10-02T13:49:59.145Z,1.48
2022-10-02T13:55:20.053Z,0.90
2022-10-02T14:00:40.174Z,1.30
2022-10-02T14:05:47.529Z,1.10
2022-10-02T14:11:03.128Z,1.45
2022-10-02T14:16:21.574Z,0.80
2022-10-02T14:21:31.964Z,1.30
2022-10-02T14:26:55.171Z,1.40
2022-10-02T14:32:24.782Z,1.40
2022-10-02T14:37:43.449Z,1.52
2022-10-02T14:43:03.857Z,1.83
2022-10-02T14:48:24.598Z,1.60
2022-10-02T14:53:47.030Z,2.00
2022-10-02T14:59:04.644Z,1.42
2022-10-02T15:04:28.834Z,1.63
2022-10-02T15:09:40.716Z,1.30
2022-10-02T15:14:59.693Z,2.13
2022-10-02T15:20:12.093Z,1.75
2022-10-02T15:25:18.337Z,1.90
2022-10-02T15:30:25.522Z,1.77
2022-10-02T15:35:48.307Z,1.95
2022-10-02T15:47:38.146Z,1.95
2022-10-02T15:52:49.149Z,1.83
2022-10-02T15:58:12.026Z,1.67
2022-10-02T16:03:24.357Z,1.90
2022-10-02T16:08:57.980Z,1.70
2022-10-02T16:14:10.387Z,2.50
2022-10-02T16:19:28.387Z,2.08
2022-10-02T16:24:48.903Z,1.90
2022-10-02T16:30:13.295Z,1.92
2022-10-02T16:36:20.042Z,2.25
2022-10-02T16:41:36.986Z,1.52
2022-10-02T16:46:45.695Z,2.28
2022-10-02T16:51:57.023Z,2.40
2022-10-02T16:57:03.706Z,1.67
2022-10-02T17:02:19.462Z,2.25
2022-10-02T17:07:31.441Z,2.95
2022-10-02T17:12:45.128Z,2.40
2022-10-02T17:17:56.165Z,1.88
2022-10-02T17:23:06.760Z,2.08
2022-10-02T17:28:20.617Z,2.28
2022-10-02T17:33:27.100Z,2.15
2022-10-02T17:38:45.200Z,2.40
2022-10-02T17:43:58.774Z,2.65
2022-10-02T17:49:09.976Z,2.13
2022-10-02T17:54:51.012Z,2.28
2022-10-02T18:00:07.812Z,2.60
2022-10-02T18:05:28.728Z,2.10
2022-10-02T18:10:42.289Z,2.83
2022-10-02T18:16:15.863Z,2.55
2022-10-02T18:21:27.778Z,2.95
2022-10-02T18:26:45.829Z,2.13
2022-10-02T18:32:13.148Z,2.28
2022-10-02T18:37:35.686Z,3.00
2022-10-02T18:42:50.145Z,2.30
2022-10-02T18:48:04.577Z,2.47
2022-10-02T18:53:28.636Z,1.77
2022-10-02T18:58:50.263Z,2.50
2022-10-02T19:04:09.445Z,2.60
2022-10-02T19:09:21.364Z,3.05
2022-10-02T19:14:34.222Z,3.47
2022-10-02T19:19:37.029Z,2.60
2022-10-02T19:24:42.942Z,3.40
2022-10-02T19:29:49.762Z,2.20
2022-10-02T19:34:59.931Z,2.38
2022-10-02T19:40:04.736Z,2.38
2022-10-02T19:45:24.435Z,2.35
2022-10-02T19:50:40.599Z,1.95
2022-10-02T19:55:44.396Z,2.63
2022-10-02T20:00:50.727Z,2.80
2022-10-02T20:05:59.024Z,2.85
2022-10-02T20:11:07.909Z,2.33
2022-10-02T20:16:34.436Z,2.97
2022-10-02T20:21:40.218Z,2.10
2022-10-02T20:26:45.686Z,2.55
2022-10-02T20:31:54.819Z,2.25
2022-10-02T20:37:05.351Z,2.47
2022-10-02T20:42:14.353Z,2.83
2022-10-02T20:47:55.670Z,1.88
2022-10-02T20:53:33.480Z,2.88
2022-10-02T20:58:50.390Z,3.83
2022-10-02T21:04:29.839Z,2.25
2022-10-02T21:10:19.995Z,2.90
2022-10-02T21:15:51.844Z,2.67
2022-10-02T21:21:22.286Z,2.47
2022-10-02T21:26:55.202Z,3.33
2022-10-02T21:32:22.917Z,2.55
2022-10-02T21:37:41.294Z,2.28
2022-10-02T21:43:17.672Z,2.08
2022-10-02T21:48:58.228Z,2.30
2022-10-02T21:54:29.404Z,2.92
2022-10-02T22:00:09.274Z,3.35
2022-10-02T22:05:40.408Z,3.20
2022-10-02T22:10:56.314Z,2.42
2022-10-02T22:16:15.259Z,3.53
2022-10-02T22:21:49.614Z,3.13
2022-10-02T22:27:14.008Z,2.88
2022-10-02T22:32:56.313Z,2.72
2022-10-02T22:38:15.018Z,5.20
2022-10-02T22:43:25.669Z,3.20
2022-10-02T22:48:37.229Z,2.53
2022-10-02T22:53:46.250Z,2.63
2022-10-02T22:58:58.403Z,2.75
2022-10-02T23:04:06.632Z,3.20
2022-10-02T23:09:18.278Z,3.50
2022-10-02T23:14:29.863Z,3.35
2022-10-02T23:19:43.964Z,2.60
2022-10-02T23:24:52.703Z,3.08
2022-10-02T23:30:00.268Z,2.53
2022-10-02T23:35:10.737Z,1.83
2022-10-02T23:40:44.656Z,2.72
2022-10-02T23:45:57.086Z,3.30
2022-10-02T23:51:12.838Z,1.98
2022-10-02T23:56:40.208Z,2.60
